createdAt,value
2018-07-31T00:00:41.519Z,66.96
2018-07-31T00:01:41.520Z,67.05
2018-07-31T00:02:41.229Z,66.96
2018-07-31T00:03:41.418Z,67.02
2018-07-31T00:04:41.549Z,66.95
2018-07-31T00:05:41.586Z,67.05
2018-07-31T00:06:41.654Z,66.81
2018-07-31T00:07:41.512Z,67.06
2018-07-31T00:08:41.551Z,66.96
2018-07-31T00:09:41.482Z,67.11
2018-07-31T00:10:41.421Z,67.01
2018-07-31T00:11:41.270Z,67
2018-07-31T00:12:41.441Z,66.91
2018-07-31T00:13:41.628Z,66.86
2018-07-31T00:14:41.479Z,67.01
2018-07-31T00:15:41.448Z,66.97
2018-07-31T00:16:41.732Z,66.99
2018-07-31T00:17:41.447Z,66.96
2018-07-31T00:18:41.488Z,66.86
2018-07-31T00:19:41.301Z,66.98
2018-07-31T00:20:41.271Z,66.94
2018-07-31T00:21:41.465Z,66.95
2018-07-31T00:22:41.288Z,66.99
2018-07-31T00:23:41.497Z,66.98
2018-07-31T00:24:41.621Z,67.06
2018-07-31T00:25:41.471Z,66.93
2018-07-31T00:26:41.496Z,67.05
2018-07-31T00:27:41.401Z,66.96
2018-07-31T00:28:41.369Z,67.03
2018-07-31T00:29:41.305Z,66.97
2018-07-31T00:30:41.546Z,67.01
2018-07-31T00:31:41.695Z,66.97
2018-07-31T00:32:41.382Z,66.87
2018-07-31T00:33:41.283Z,67.03
2018-07-31T00:34:41.660Z,67.01
2018-07-31T00:35:41.490Z,66.94
2018-07-31T00:36:41.284Z,66.95
2018-07-31T00:37:41.558Z,67
2018-07-31T00:38:41.257Z,67.08
2018-07-31T00:39:41.422Z,67.08
2018-07-31T00:40:41.431Z,66.99
2018-07-31T00:41:41.421Z,66.96
2018-07-31T00:42:41.441Z,67
2018-07-31T00:43:41.497Z,67.06
2018-07-31T00:44:41.672Z,66.92
2018-07-31T00:45:41.434Z,67.08
2018-07-31T00:46:41.329Z,66.94
2018-07-31T00:47:41.256Z,67.07
2018-07-31T00:48:41.415Z,67
2018-07-31T00:49:41.757Z,67
2018-07-31T00:50:41.408Z,66.94
2018-07-31T00:51:41.411Z,66.9
2018-07-31T00:52:41.503Z,67.02
2018-07-31T00:53:41.723Z,67
2018-07-31T00:54:41.611Z,67.05
2018-07-31T00:55:41.376Z,66.92
2018-07-31T00:56:41.291Z,67.04
2018-07-31T00:57:41.513Z,66.99
2018-07-31T00:58:41.731Z,66.97
2018-07-31T00:59:41.548Z,67.01
2018-07-31T01:00:41.282Z,66.96
2018-07-31T01:01:41.336Z,67.01
2018-07-31T01:02:41.572Z,67.02
2018-07-31T01:03:41.440Z,66.94
2018-07-31T01:04:41.436Z,66.97
2018-07-31T01:05:41.256Z,67.08
2018-07-31T01:06:41.381Z,66.97
2018-07-31T01:07:41.434Z,66.97
2018-07-31T01:08:41.319Z,67.01
2018-07-31T01:09:41.398Z,66.97
2018-07-31T01:10:41.493Z,66.9
2018-07-31T01:11:41.410Z,67
2018-07-31T01:12:41.485Z,66.82
2018-07-31T01:13:41.433Z,67.05
2018-07-31T01:14:41.380Z,67.02
2018-07-31T01:15:41.398Z,67.03
2018-07-31T01:16:41.458Z,67.03
2018-07-31T01:17:41.426Z,66.96
2018-07-31T01:18:41.491Z,67.01
2018-07-31T01:19:41.471Z,66.94
2018-07-31T01:20:41.581Z,67
2018-07-31T01:21:41.435Z,66.99
2018-07-31T01:22:41.449Z,67.01
2018-07-31T01:23:41.249Z,67.01
2018-07-31T01:24:41.560Z,67.01
2018-07-31T01:25:41.487Z,67.01
2018-07-31T01:26:41.480Z,66.96
2018-07-31T01:27:41.415Z,66.97
2018-07-31T01:28:41.501Z,66.98
2018-07-31T01:29:41.321Z,67
2018-07-31T01:30:41.535Z,67.04
2018-07-31T01:31:41.542Z,66.98
2018-07-31T01:32:41.340Z,66.95
2018-07-31T01:33:41.299Z,66.96
2018-07-31T01:34:41.468Z,67.03
2018-07-31T01:35:41.327Z,67.02
2018-07-31T01:36:41.366Z,67.01
2018-07-31T01:37:41.323Z,66.96
2018-07-31T01:38:41.363Z,66.95
2018-07-31T01:39:41.356Z,67.02
2018-07-31T01:40:41.511Z,66.89
2018-07-31T01:41:41.272Z,66.99
2018-07-31T01:42:41.329Z,66.97
2018-07-31T01:43:41.462Z,67.03
2018-07-31T01:44:41.450Z,67.07
2018-07-31T01:45:41.587Z,66.97
2018-07-31T01:46:41.427Z,66.99
2018-07-31T01:47:41.425Z,66.97
2018-07-31T01:48:41.744Z,66.89
2018-07-31T01:49:41.564Z,66.96
2018-07-31T01:50:41.240Z,67.08
2018-07-31T01:51:41.278Z,66.95
2018-07-31T01:52:41.317Z,67.06
2018-07-31T01:53:41.318Z,66.95
2018-07-31T01:54:41.265Z,66.95
2018-07-31T01:55:41.340Z,66.97
2018-07-31T01:56:41.437Z,67.1
2018-07-31T01:57:41.456Z,66.93
2018-07-31T01:58:41.492Z,66.99
2018-07-31T01:59:41.537Z,66.99
2018-07-31T02:00:41.700Z,66.95
2018-07-31T02:01:41.442Z,66.99
2018-07-31T02:02:41.565Z,66.92
2018-07-31T02:03:41.405Z,66.89
2018-07-31T02:04:41.513Z,66.97
2018-07-31T02:05:41.449Z,67.04
2018-07-31T02:06:41.481Z,66.95
2018-07-31T02:07:41.370Z,66.99
2018-07-31T02:08:41.270Z,66.99
2018-07-31T02:09:41.424Z,67.03
2018-07-31T02:10:41.363Z,66.96
2018-07-31T02:11:41.385Z,67.05
2018-07-31T02:12:41.580Z,66.97
2018-07-31T02:13:41.550Z,67.06
2018-07-31T02:14:41.415Z,67.05
2018-07-31T02:15:41.582Z,66.93
2018-07-31T02:16:41.452Z,67.02
2018-07-31T02:17:41.378Z,67.01
2018-07-31T02:18:41.375Z,66.97
2018-07-31T02:19:41.402Z,66.9
2018-07-31T02:20:41.483Z,66.87
2018-07-31T02:21:41.472Z,66.93
2018-07-31T02:22:41.495Z,66.99
2018-07-31T02:23:41.327Z,66.99
2018-07-31T02:24:41.498Z,66.94
2018-07-31T02:25:41.326Z,66.98
2018-07-31T02:26:41.270Z,66.89
2018-07-31T02:27:41.459Z,66.91
2018-07-31T02:28:41.569Z,66.99
2018-07-31T02:29:41.504Z,66.92
2018-07-31T02:30:41.418Z,66.98
2018-07-31T02:31:41.350Z,66.99
2018-07-31T02:32:41.349Z,66.91
2018-07-31T02:33:41.318Z,67.04
2018-07-31T02:34:41.365Z,66.99
2018-07-31T02:35:41.220Z,67.04
2018-07-31T02:36:41.526Z,67.04
2018-07-31T02:37:41.494Z,66.93
2018-07-31T02:38:41.358Z,67.11
2018-07-31T02:39:41.639Z,66.9
2018-07-31T02:40:41.502Z,66.89
2018-07-31T02:41:41.316Z,66.94
2018-07-31T02:42:41.751Z,66.96
2018-07-31T02:43:41.319Z,67.06
2018-07-31T02:44:41.340Z,67.05
2018-07-31T02:45:41.456Z,66.92
2018-07-31T02:46:41.453Z,66.91
2018-07-31T02:47:41.752Z,66.93
2018-07-31T02:48:41.276Z,66.93
2018-07-31T02:49:41.294Z,66.94
2018-07-31T02:50:41.404Z,66.9
2018-07-31T02:51:41.315Z,66.89
2018-07-31T02:52:41.828Z,66.96
2018-07-31T02:53:41.283Z,66.91
2018-07-31T02:54:41.355Z,66.96
2018-07-31T02:55:41.498Z,66.92
2018-07-31T02:56:41.615Z,66.94
2018-07-31T02:57:41.735Z,67
2018-07-31T02:58:41.336Z,66.93
2018-07-31T02:59:41.422Z,67
2018-07-31T03:00:41.683Z,66.98
2018-07-31T03:01:41.719Z,66.97
2018-07-31T03:02:41.300Z,66.93
2018-07-31T03:03:41.670Z,66.98
2018-07-31T03:04:41.552Z,66.92
2018-07-31T03:05:41.432Z,66.95
2018-07-31T03:06:41.344Z,66.93
2018-07-31T03:07:41.409Z,66.92
2018-07-31T03:08:41.352Z,66.84
2018-07-31T03:09:41.599Z,66.97
2018-07-31T03:10:41.773Z,66.9
2018-07-31T03:11:41.240Z,66.87
2018-07-31T03:12:41.359Z,66.88
2018-07-31T03:13:41.323Z,66.92
2018-07-31T03:14:41.377Z,66.91
2018-07-31T03:15:41.452Z,66.9
2018-07-31T03:16:41.515Z,66.94
2018-07-31T03:17:41.647Z,66.94
2018-07-31T03:18:41.317Z,66.98
2018-07-31T03:19:41.428Z,66.92
2018-07-31T03:20:41.361Z,66.84
2018-07-31T03:21:41.433Z,66.9
2018-07-31T03:22:41.289Z,66.86
2018-07-31T03:23:41.458Z,67
2018-07-31T03:24:41.452Z,67.01
2018-07-31T03:25:41.486Z,66.94
2018-07-31T03:26:41.265Z,66.98
2018-07-31T03:27:41.262Z,66.94
2018-07-31T03:28:41.421Z,66.84
2018-07-31T03:29:41.152Z,66.91
2018-07-31T03:30:41.505Z,66.7
2018-07-31T03:31:41.432Z,66.97
2018-07-31T03:32:41.445Z,66.88
2018-07-31T03:33:41.471Z,66.91
2018-07-31T03:34:41.422Z,66.87
2018-07-31T03:35:41.437Z,67
2018-07-31T03:36:41.347Z,66.86
2018-07-31T03:37:41.490Z,66.86
2018-07-31T03:38:41.249Z,66.99
2018-07-31T03:39:41.333Z,66.94
2018-07-31T03:40:41.336Z,66.88
2018-07-31T03:41:41.274Z,66.91
2018-07-31T03:42:41.376Z,66.87
2018-07-31T03:43:41.381Z,66.91
2018-07-31T03:44:41.275Z,66.88
2018-07-31T03:45:41.306Z,66.94
2018-07-31T03:46:41.322Z,66.92
2018-07-31T03:47:41.211Z,66.89
2018-07-31T03:48:41.442Z,66.94
2018-07-31T03:49:41.434Z,66.9
2018-07-31T03:50:41.496Z,66.93
2018-07-31T03:51:41.564Z,66.78
2018-07-31T03:52:41.387Z,66.89
2018-07-31T03:53:41.271Z,66.95
2018-07-31T03:54:41.304Z,66.93
2018-07-31T03:55:41.343Z,66.95
2018-07-31T03:56:41.478Z,67
2018-07-31T03:57:41.778Z,66.93
2018-07-31T03:58:41.226Z,66.88
2018-07-31T03:59:41.396Z,66.86
2018-07-31T04:00:41.413Z,66.81
2018-07-31T04:01:41.472Z,66.87
2018-07-31T04:02:41.423Z,66.92
2018-07-31T04:03:41.425Z,67.04
2018-07-31T04:04:41.497Z,66.9
2018-07-31T04:05:41.328Z,66.9
2018-07-31T04:06:41.525Z,66.57
2018-07-31T04:07:41.279Z,64.15
2018-07-31T04:08:41.231Z,62.91
2018-07-31T04:09:41.410Z,62.16
2018-07-31T04:10:41.362Z,61.85
2018-07-31T04:11:41.298Z,61.3
2018-07-31T04:12:41.466Z,61.47
2018-07-31T04:13:41.478Z,61.5
2018-07-31T04:14:41.369Z,61.23
2018-07-31T04:15:41.381Z,61.35
2018-07-31T04:16:41.414Z,61.13
2018-07-31T04:17:41.345Z,61.28
2018-07-31T04:18:41.362Z,60.84
2018-07-31T04:19:41.653Z,60.78
2018-07-31T04:20:41.258Z,60.94
2018-07-31T04:21:41.473Z,60.9
2018-07-31T04:22:41.455Z,60.86
2018-07-31T04:23:41.479Z,60.6
2018-07-31T04:24:41.554Z,60.87
2018-07-31T04:25:41.581Z,60.53
2018-07-31T04:26:41.406Z,60.9
2018-07-31T04:27:41.450Z,60.91
2018-07-31T04:28:41.405Z,60.86
2018-07-31T04:29:41.225Z,60.87
2018-07-31T04:30:41.410Z,61.08
2018-07-31T04:31:41.411Z,60.74
2018-07-31T04:32:41.232Z,60.74
2018-07-31T04:33:41.329Z,60.91
2018-07-31T04:34:41.468Z,60.86
2018-07-31T04:35:41.415Z,60.89
2018-07-31T04:36:41.420Z,60.87
2018-07-31T04:37:41.497Z,60.99
2018-07-31T04:38:41.255Z,61.1
2018-07-31T04:39:41.413Z,60.69
2018-07-31T04:40:41.375Z,60.83
2018-07-31T04:41:41.388Z,60.8
2018-07-31T04:42:41.491Z,61.08
2018-07-31T04:43:41.490Z,60.87
2018-07-31T04:44:41.360Z,60.95
2018-07-31T04:45:41.452Z,60.87
2018-07-31T04:46:41.457Z,60.68
2018-07-31T04:47:41.231Z,60.6
2018-07-31T04:48:41.281Z,60.46
2018-07-31T04:49:41.416Z,60.42
2018-07-31T04:50:41.280Z,60.6
2018-07-31T04:51:41.228Z,60.65
2018-07-31T04:52:41.226Z,60.78
2018-07-31T04:53:41.401Z,60.47
2018-07-31T04:54:41.293Z,60.89
2018-07-31T04:55:41.389Z,60.57
2018-07-31T04:56:41.269Z,60.3
2018-07-31T04:57:41.386Z,60.55
2018-07-31T04:58:41.401Z,60.49
2018-07-31T04:59:41.410Z,60.59
2018-07-31T05:00:41.656Z,60.54
2018-07-31T05:01:41.484Z,60.57
2018-07-31T05:02:41.424Z,60.97
2018-07-31T05:03:41.517Z,60.56
2018-07-31T05:04:41.393Z,60.46
2018-07-31T05:05:41.209Z,60.6
2018-07-31T05:06:41.383Z,60.73
2018-07-31T05:07:41.696Z,60.63
2018-07-31T05:08:41.341Z,60.83
2018-07-31T05:09:41.490Z,60.43
2018-07-31T05:10:41.484Z,60.35
2018-07-31T05:11:41.228Z,60.6
2018-07-31T05:12:41.326Z,60.69
2018-07-31T05:13:41.374Z,60.77
2018-07-31T05:14:41.140Z,60.96
2018-07-31T05:15:41.312Z,61.08
2018-07-31T05:16:41.433Z,60.84
2018-07-31T05:17:41.727Z,60.81
2018-07-31T05:18:41.281Z,60.93
2018-07-31T05:19:41.447Z,60.97
2018-07-31T05:20:41.420Z,61.12
2018-07-31T05:21:41.374Z,61.09
2018-07-31T05:22:41.472Z,61.2
2018-07-31T05:23:41.474Z,61.23
2018-07-31T05:24:41.339Z,61.34
2018-07-31T05:25:41.458Z,61.26
2018-07-31T05:26:41.315Z,61.51
2018-07-31T05:27:41.614Z,61.66
2018-07-31T05:28:41.400Z,61.39
2018-07-31T05:29:41.388Z,61.52
2018-07-31T05:30:41.313Z,61.58
2018-07-31T05:31:41.469Z,61.67
2018-07-31T05:32:41.427Z,61.73
2018-07-31T05:33:41.392Z,61.79
2018-07-31T05:34:41.340Z,61.75
2018-07-31T05:35:41.389Z,61.75
2018-07-31T05:36:41.619Z,61.84
2018-07-31T05:37:41.434Z,61.71
2018-07-31T05:38:41.363Z,61.89
2018-07-31T05:39:41.413Z,61.9
2018-07-31T05:40:41.314Z,61.87
2018-07-31T05:41:41.198Z,61.93
2018-07-31T05:42:41.753Z,61.98
2018-07-31T05:43:41.479Z,62.15
2018-07-31T05:44:42.868Z,62.18
2018-07-31T05:45:41.453Z,62.26
2018-07-31T05:46:41.265Z,62.27
2018-07-31T05:47:41.403Z,62.05
2018-07-31T05:48:41.237Z,62.16
2018-07-31T05:49:41.388Z,62.51
2018-07-31T05:50:41.399Z,62.44
2018-07-31T05:51:41.426Z,62.39
2018-07-31T05:52:41.507Z,62.42
2018-07-31T05:53:41.396Z,62.37
2018-07-31T05:54:41.315Z,62.62
2018-07-31T05:55:41.424Z,62.45
2018-07-31T05:56:41.537Z,62.36
2018-07-31T05:57:41.554Z,62.51
2018-07-31T05:58:41.656Z,62.62
2018-07-31T05:59:41.245Z,62.49
2018-07-31T06:00:41.309Z,62.63
2018-07-31T06:01:41.339Z,62.67
2018-07-31T06:02:41.381Z,62.5
2018-07-31T06:03:41.505Z,62.77
2018-07-31T06:04:41.487Z,62.74
2018-07-31T06:05:41.316Z,62.74
2018-07-31T06:06:41.412Z,62.79
2018-07-31T06:07:41.322Z,62.77
2018-07-31T06:08:41.256Z,62.75
2018-07-31T06:09:41.487Z,62.89
2018-07-31T06:10:41.503Z,62.89
2018-07-31T06:11:41.230Z,62.94
2018-07-31T06:12:41.290Z,62.79
2018-07-31T06:13:41.241Z,62.92
2018-07-31T06:14:41.399Z,63.05
2018-07-31T06:15:41.260Z,62.94
2018-07-31T06:16:41.351Z,63.05
2018-07-31T06:17:41.201Z,63.05
2018-07-31T06:18:41.427Z,62.98
2018-07-31T06:19:41.331Z,63.05
2018-07-31T06:20:41.401Z,62.88
2018-07-31T06:21:41.391Z,63.08
2018-07-31T06:22:41.319Z,63.09
2018-07-31T06:23:41.185Z,63.12
2018-07-31T06:24:41.225Z,63.26
2018-07-31T06:25:41.743Z,63.21
2018-07-31T06:26:41.893Z,63.12
2018-07-31T06:27:41.229Z,63.2
2018-07-31T06:28:41.464Z,63.26
2018-07-31T06:29:41.356Z,63.19
2018-07-31T06:30:41.373Z,63.31
2018-07-31T06:31:41.195Z,63.28
2018-07-31T06:32:41.274Z,63.28
2018-07-31T06:33:41.398Z,63.33
2018-07-31T06:34:41.757Z,63.34
2018-07-31T06:35:41.363Z,63.33
2018-07-31T06:36:41.209Z,63.39
2018-07-31T06:37:41.534Z,63.41
2018-07-31T06:38:41.298Z,63.41
2018-07-31T06:39:41.213Z,63.36
2018-07-31T06:40:41.245Z,63.41
2018-07-31T06:41:41.380Z,63.44
2018-07-31T06:42:41.438Z,63.4
2018-07-31T06:43:41.455Z,63.51
2018-07-31T06:44:41.251Z,63.42
2018-07-31T06:45:41.238Z,63.58
2018-07-31T06:46:41.454Z,63.57
2018-07-31T06:47:41.371Z,63.58
2018-07-31T06:48:41.313Z,63.53
2018-07-31T06:49:41.514Z,63.61
2018-07-31T06:50:41.326Z,63.57
2018-07-31T06:51:41.400Z,63.53
2018-07-31T06:52:41.362Z,63.55
2018-07-31T06:53:41.336Z,63.64
2018-07-31T06:54:41.291Z,63.61
2018-07-31T06:55:41.784Z,63.68
2018-07-31T06:56:41.480Z,63.7
2018-07-31T06:57:41.298Z,63.3
2018-07-31T06:58:41.270Z,63.71
2018-07-31T06:59:42.372Z,63.68
2018-07-31T07:00:41.462Z,63.67
2018-07-31T07:01:41.262Z,63.81
2018-07-31T07:02:41.192Z,63.63
2018-07-31T07:03:41.200Z,63.63
2018-07-31T07:04:41.402Z,63.66
2018-07-31T07:05:41.496Z,63.75
2018-07-31T07:06:41.257Z,63.76
2018-07-31T07:07:41.333Z,63.79
2018-07-31T07:08:41.389Z,63.75
2018-07-31T07:09:41.326Z,63.77
2018-07-31T07:10:41.453Z,63.73
2018-07-31T07:11:41.465Z,63.85
2018-07-31T07:12:41.555Z,63.91
2018-07-31T07:13:41.512Z,63.95
2018-07-31T07:14:41.451Z,63.94
2018-07-31T07:15:41.448Z,63.84
2018-07-31T07:16:41.646Z,63.88
2018-07-31T07:17:41.235Z,63.92
2018-07-31T07:18:41.389Z,63.95
2018-07-31T07:19:41.286Z,64.08
2018-07-31T07:20:41.145Z,64
2018-07-31T07:21:41.393Z,63.88
2018-07-31T07:22:41.491Z,64
2018-07-31T07:23:41.322Z,63.95
2018-07-31T07:24:41.384Z,63.92
2018-07-31T07:25:41.329Z,63.93
2018-07-31T07:26:41.341Z,63.82
2018-07-31T07:27:41.249Z,63.88
2018-07-31T07:28:41.350Z,63.95
2018-07-31T07:29:41.161Z,63.92
2018-07-31T07:30:41.339Z,63.97
2018-07-31T07:31:41.581Z,63.99
2018-07-31T07:32:41.307Z,63.97
2018-07-31T07:33:41.615Z,64.07
2018-07-31T07:34:41.071Z,63.96
2018-07-31T07:35:41.196Z,64.01
2018-07-31T07:36:41.158Z,63.99
2018-07-31T07:37:41.467Z,63.95
2018-07-31T07:38:41.172Z,63.95
2018-07-31T07:39:41.337Z,63.8
2018-07-31T07:40:41.215Z,64.01
2018-07-31T07:41:41.252Z,64.06
2018-07-31T07:42:41.278Z,64.05
2018-07-31T07:43:41.471Z,64.12
2018-07-31T07:44:41.517Z,64.04
2018-07-31T07:45:41.440Z,64.03
2018-07-31T07:46:41.558Z,64.19
2018-07-31T07:47:41.353Z,64.09
2018-07-31T07:48:41.400Z,64.2
2018-07-31T07:49:41.235Z,64.12
2018-07-31T07:50:41.432Z,64
2018-07-31T07:51:41.261Z,64.14
2018-07-31T07:52:41.345Z,64.12
2018-07-31T07:53:41.450Z,64.21
2018-07-31T07:54:41.277Z,64.16
2018-07-31T07:55:41.440Z,64.12
2018-07-31T07:56:41.298Z,64.07
2018-07-31T07:57:41.483Z,64.34
2018-07-31T07:58:41.158Z,64.12
2018-07-31T07:59:41.417Z,64.35
2018-07-31T08:00:41.383Z,64.18
2018-07-31T08:01:41.215Z,64.16
2018-07-31T08:02:41.239Z,64.18
2018-07-31T08:03:41.666Z,64.11
2018-07-31T08:04:41.347Z,64.23
2018-07-31T08:05:41.672Z,63.99
2018-07-31T08:06:41.299Z,64.17
2018-07-31T08:07:41.217Z,64.14
2018-07-31T08:08:41.280Z,64.21
2018-07-31T08:09:41.667Z,64.14
2018-07-31T08:10:41.646Z,64.16
2018-07-31T08:11:41.292Z,64.21
2018-07-31T08:12:41.631Z,64.19
2018-07-31T08:13:41.209Z,64.07
2018-07-31T08:14:41.213Z,64.27
2018-07-31T08:15:41.306Z,64.16
2018-07-31T08:16:41.301Z,64.21
2018-07-31T08:17:41.446Z,64.04
2018-07-31T08:18:41.348Z,64.18
2018-07-31T08:19:41.223Z,64.08
2018-07-31T08:20:41.236Z,64.09
2018-07-31T08:21:41.341Z,64.28
2018-07-31T08:22:41.594Z,64.1
2018-07-31T08:23:41.520Z,64.12
2018-07-31T08:24:41.404Z,64.08
2018-07-31T08:25:41.195Z,64.16
2018-07-31T08:26:41.272Z,64.24
2018-07-31T08:27:41.478Z,64.11
2018-07-31T08:28:41.340Z,64.26
2018-07-31T08:29:41.289Z,64.15
2018-07-31T08:30:41.263Z,64.21
2018-07-31T08:31:41.545Z,64.16
2018-07-31T08:32:41.242Z,64.14
2018-07-31T08:33:41.315Z,64.15
2018-07-31T08:34:41.285Z,64.31
2018-07-31T08:35:41.348Z,64.19
2018-07-31T08:36:41.373Z,64.13
2018-07-31T08:37:41.413Z,64.24
2018-07-31T08:38:41.384Z,64.21
2018-07-31T08:39:41.179Z,64.24
2018-07-31T08:40:41.303Z,64.19
2018-07-31T08:41:41.306Z,64.14
2018-07-31T08:42:41.319Z,64.16
2018-07-31T08:43:41.398Z,64.05
2018-07-31T08:44:41.495Z,64.14
2018-07-31T08:45:41.178Z,64.08
2018-07-31T08:46:41.477Z,64.25
2018-07-31T08:47:41.336Z,64.13
2018-07-31T08:48:41.399Z,64.26
2018-07-31T08:49:41.371Z,64.15
2018-07-31T08:50:41.294Z,64.2
2018-07-31T08:51:41.377Z,64.18
2018-07-31T08:52:41.228Z,64.2
2018-07-31T08:53:41.361Z,63.91
2018-07-31T08:54:41.344Z,64.01
2018-07-31T08:55:41.545Z,63.87
2018-07-31T08:56:41.229Z,64.07
2018-07-31T08:57:41.747Z,64.13
2018-07-31T08:58:41.269Z,64.12
2018-07-31T08:59:41.477Z,64.2
2018-07-31T09:00:41.350Z,64.22
2018-07-31T09:01:41.417Z,64.27
2018-07-31T09:02:41.517Z,64.34
2018-07-31T09:03:41.110Z,64.4
2018-07-31T09:04:41.251Z,64.33
2018-07-31T09:05:41.476Z,64.37
2018-07-31T09:06:41.466Z,64.32
2018-07-31T09:07:41.362Z,64.43
2018-07-31T09:08:41.592Z,64.34
2018-07-31T09:09:41.490Z,64.36
2018-07-31T09:10:41.472Z,64.46
2018-07-31T09:11:41.534Z,64.57
2018-07-31T09:12:41.303Z,64.47
2018-07-31T09:13:41.405Z,64.47
2018-07-31T09:14:41.418Z,64.49
2018-07-31T09:15:41.334Z,64.53
2018-07-31T09:16:41.368Z,64.48
2018-07-31T09:17:41.684Z,64.5
2018-07-31T09:18:41.241Z,64.49
2018-07-31T09:19:41.325Z,64.44
2018-07-31T09:20:41.393Z,64.66
2018-07-31T09:21:41.122Z,64.48
2018-07-31T09:22:41.316Z,64.44
2018-07-31T09:23:41.310Z,64.5
2018-07-31T09:24:41.652Z,64.57
2018-07-31T09:25:41.522Z,64.49
2018-07-31T09:26:41.663Z,64.56
2018-07-31T09:27:41.507Z,64.46
2018-07-31T09:28:41.247Z,64.47
2018-07-31T09:29:41.356Z,64.59
2018-07-31T09:30:41.317Z,64.57
2018-07-31T09:31:41.472Z,64.49
2018-07-31T09:32:41.337Z,64.46
2018-07-31T09:33:41.319Z,64.68
2018-07-31T09:34:41.356Z,64.63
2018-07-31T09:35:41.261Z,64.53
2018-07-31T09:36:41.271Z,64.5
2018-07-31T09:37:41.428Z,64.56
2018-07-31T09:38:41.411Z,64.49
2018-07-31T09:39:41.124Z,64.45
2018-07-31T09:40:41.243Z,64.52
2018-07-31T09:41:41.320Z,64.4
2018-07-31T09:42:41.515Z,64.4
2018-07-31T09:43:41.303Z,64.46
2018-07-31T09:44:41.484Z,64.41
2018-07-31T09:45:41.345Z,64.44
2018-07-31T09:46:41.330Z,64.43
2018-07-31T09:47:41.377Z,64.45
2018-07-31T09:48:41.264Z,64.43
2018-07-31T09:49:41.431Z,64.47
2018-07-31T09:50:41.435Z,64.48
2018-07-31T09:51:41.197Z,64.49
2018-07-31T09:52:41.250Z,64.49
2018-07-31T09:53:41.210Z,64.49
2018-07-31T09:54:41.292Z,64.43
2018-07-31T09:55:41.376Z,64.45
2018-07-31T09:56:41.428Z,64.52
2018-07-31T09:57:41.186Z,64.52
2018-07-31T09:58:41.174Z,64.52
2018-07-31T09:59:41.161Z,64.51
2018-07-31T10:00:41.272Z,64.53
2018-07-31T10:01:41.282Z,64.54
2018-07-31T10:02:41.221Z,64.53
2018-07-31T10:03:41.305Z,64.57
2018-07-31T10:04:41.426Z,64.52
2018-07-31T10:05:41.294Z,64.37
2018-07-31T10:06:41.148Z,64.47
2018-07-31T10:07:41.248Z,64.52
2018-07-31T10:08:41.206Z,64.54
2018-07-31T10:09:41.442Z,64.43
2018-07-31T10:10:41.339Z,64.49
2018-07-31T10:11:41.350Z,64.57
2018-07-31T10:12:41.393Z,64.5
2018-07-31T10:13:41.297Z,64.53
2018-07-31T10:14:41.295Z,64.62
2018-07-31T10:15:41.186Z,64.58
2018-07-31T10:16:41.138Z,64.48
2018-07-31T10:17:41.347Z,64.53
2018-07-31T10:18:41.199Z,64.61
2018-07-31T10:19:41.256Z,64.54
2018-07-31T10:20:41.192Z,64.59
2018-07-31T10:21:41.411Z,64.59
2018-07-31T10:22:41.620Z,64.55
2018-07-31T10:23:41.279Z,64.48
2018-07-31T10:24:41.161Z,64.6
2018-07-31T10:25:41.383Z,64.51
2018-07-31T10:26:41.131Z,64.55
2018-07-31T10:27:41.286Z,64.54
2018-07-31T10:28:41.188Z,64.54
2018-07-31T10:29:41.212Z,64.73
2018-07-31T10:30:41.575Z,64.65
2018-07-31T10:31:41.412Z,64.55
2018-07-31T10:32:41.326Z,64.6
2018-07-31T10:33:41.388Z,64.55
2018-07-31T10:34:41.366Z,64.55
2018-07-31T10:35:41.260Z,64.71
2018-07-31T10:36:41.268Z,64.57
2018-07-31T10:37:41.477Z,64.51
2018-07-31T10:38:41.320Z,64.59
2018-07-31T10:39:41.104Z,64.49
2018-07-31T10:40:41.251Z,64.58
2018-07-31T10:41:41.295Z,64.64
2018-07-31T10:42:41.263Z,64.52
2018-07-31T10:43:41.363Z,64.55
2018-07-31T10:44:41.218Z,64.57
2018-07-31T10:45:41.472Z,64.63
2018-07-31T10:46:41.470Z,64.59
2018-07-31T10:47:41.200Z,64.59
2018-07-31T10:48:41.191Z,64.58
2018-07-31T10:49:41.319Z,64.61
2018-07-31T10:50:41.432Z,64.52
2018-07-31T10:51:41.316Z,64.57
2018-07-31T10:52:41.213Z,64.61
2018-07-31T10:53:41.167Z,64.52
2018-07-31T10:54:41.346Z,64.58
2018-07-31T10:55:41.346Z,64.54
2018-07-31T10:56:41.500Z,64.71
2018-07-31T10:57:41.242Z,64.64
2018-07-31T10:58:41.595Z,64.59
2018-07-31T10:59:41.401Z,64.57
2018-07-31T11:00:41.215Z,64.63
2018-07-31T11:01:41.243Z,64.57
2018-07-31T11:02:41.236Z,64.6
2018-07-31T11:03:41.407Z,64.61
2018-07-31T11:04:41.307Z,64.59
2018-07-31T11:05:41.308Z,64.6
2018-07-31T11:06:41.271Z,64.54
2018-07-31T11:07:41.310Z,64.64
2018-07-31T11:08:41.142Z,64.54
2018-07-31T11:09:41.451Z,64.65
2018-07-31T11:10:41.251Z,64.6
2018-07-31T11:11:41.140Z,64.68
2018-07-31T11:12:41.307Z,64.59
2018-07-31T11:13:41.209Z,64.68
2018-07-31T11:14:41.429Z,64.64
2018-07-31T11:15:41.148Z,64.71
2018-07-31T11:16:41.214Z,64.63
2018-07-31T11:17:41.178Z,64.68
2018-07-31T11:18:41.227Z,64.7
2018-07-31T11:19:41.399Z,64.65
2018-07-31T11:20:41.136Z,64.67
2018-07-31T11:21:41.277Z,64.61
2018-07-31T11:22:41.386Z,64.71
2018-07-31T11:23:41.124Z,64.66
2018-07-31T11:24:41.552Z,64.68
2018-07-31T11:25:41.277Z,64.64
2018-07-31T11:26:41.227Z,64.64
2018-07-31T11:27:41.415Z,64.62
2018-07-31T11:28:41.397Z,64.65
2018-07-31T11:29:41.641Z,64.66
2018-07-31T11:30:41.308Z,64.64
2018-07-31T11:31:41.283Z,64.64
2018-07-31T11:32:41.207Z,64.53
2018-07-31T11:33:41.293Z,64.71
2018-07-31T11:34:41.656Z,64.7
2018-07-31T11:35:41.248Z,64.73
2018-07-31T11:36:41.478Z,64.65
2018-07-31T11:37:41.351Z,64.67
2018-07-31T11:38:41.336Z,64.73
2018-07-31T11:39:41.265Z,64.64
2018-07-31T11:40:41.197Z,64.64
2018-07-31T11:41:41.185Z,64.71
2018-07-31T11:42:41.279Z,64.66
2018-07-31T11:43:41.461Z,64.63
2018-07-31T11:44:41.333Z,64.72
2018-07-31T11:45:41.298Z,64.63
2018-07-31T11:46:41.381Z,64.66
2018-07-31T11:47:41.358Z,64.67
2018-07-31T11:48:41.193Z,64.73
2018-07-31T11:49:41.375Z,64.85
2018-07-31T11:50:41.373Z,64.66
2018-07-31T11:51:41.478Z,64.7
2018-07-31T11:52:41.283Z,64.61
2018-07-31T11:53:41.386Z,64.66
2018-07-31T11:54:41.413Z,64.7
2018-07-31T11:55:41.539Z,64.63
2018-07-31T11:56:41.430Z,64.73
2018-07-31T11:57:41.300Z,64.66
2018-07-31T11:58:41.116Z,64.71
2018-07-31T11:59:41.301Z,64.66
2018-07-31T12:00:41.375Z,64.73
2018-07-31T12:01:41.287Z,64.67
2018-07-31T12:02:41.246Z,64.77
2018-07-31T12:03:41.289Z,64.73
2018-07-31T12:04:41.212Z,64.7
2018-07-31T12:05:41.494Z,64.72
2018-07-31T12:06:41.393Z,64.6
2018-07-31T12:07:41.068Z,64.7
2018-07-31T12:08:41.452Z,64.75
2018-07-31T12:09:41.491Z,64.68
2018-07-31T12:10:41.452Z,64.71
2018-07-31T12:11:41.403Z,64.7
2018-07-31T12:12:41.191Z,64.61
2018-07-31T12:13:41.322Z,64.64
2018-07-31T12:14:41.353Z,64.73
2018-07-31T12:15:41.172Z,64.75
2018-07-31T12:16:41.147Z,64.72
2018-07-31T12:17:41.322Z,64.66
2018-07-31T12:18:41.336Z,64.71
2018-07-31T12:19:41.361Z,64.64
2018-07-31T12:20:41.183Z,64.71
2018-07-31T12:21:41.352Z,64.66
2018-07-31T12:22:41.317Z,64.63
2018-07-31T12:23:41.385Z,64.67
2018-07-31T12:24:41.138Z,64.67
2018-07-31T12:25:41.136Z,64.7
2018-07-31T12:26:41.452Z,64.7
2018-07-31T12:27:41.274Z,64.74
2018-07-31T12:28:41.403Z,64.73
2018-07-31T12:29:41.130Z,64.8
2018-07-31T12:30:41.298Z,64.67
2018-07-31T12:31:41.280Z,64.73
2018-07-31T12:32:41.392Z,64.77
2018-07-31T12:33:41.241Z,64.69
2018-07-31T12:34:41.200Z,64.7
2018-07-31T12:35:41.191Z,64.71
2018-07-31T12:36:41.268Z,64.79
2018-07-31T12:37:41.263Z,64.77
2018-07-31T12:38:43.114Z,64.85
2018-07-31T12:39:41.198Z,64.7
2018-07-31T12:40:41.225Z,64.67
2018-07-31T12:41:41.210Z,64.65
2018-07-31T12:42:41.190Z,64.66
2018-07-31T12:43:41.140Z,64.75
2018-07-31T12:44:41.293Z,64.66
2018-07-31T12:45:41.104Z,64.66
2018-07-31T12:46:41.323Z,64.76
2018-07-31T12:47:41.370Z,64.73
2018-07-31T12:48:41.281Z,64.7
2018-07-31T12:49:41.271Z,64.7
2018-07-31T12:50:41.451Z,64.79
2018-07-31T12:51:41.465Z,64.75
2018-07-31T12:52:41.180Z,64.7
2018-07-31T12:53:41.263Z,64.73
2018-07-31T12:54:41.197Z,64.68
2018-07-31T12:55:41.165Z,64.74
2018-07-31T12:56:41.550Z,64.77